createdAt,value
2018-09-22T00:01:45.552Z,16.09
2018-09-22T00:04:14.394Z,16.04
2018-09-22T00:06:43.682Z,16.04
2018-09-22T00:09:12.873Z,16.00
2018-09-22T00:11:41.829Z,15.94
2018-09-22T00:14:11.485Z,15.93
2018-09-22T00:16:40.367Z,15.91
2018-09-22T00:19:09.458Z,15.94
2018-09-22T00:21:38.965Z,15.91
2018-09-22T00:24:07.896Z,15.86
2018-09-22T00:26:37.257Z,16.00
2018-09-22T00:29:06.813Z,15.96
2018-09-22T00:31:37.005Z,15.91
2018-09-22T00:34:05.967Z,15.98
2018-09-22T00:36:34.805Z,16.04
2018-09-22T00:39:05.196Z,16.05
2018-09-22T00:41:34.166Z,16.03
2018-09-22T00:44:03.758Z,16.04
2018-09-22T00:46:32.885Z,16.14
2018-09-22T00:49:01.745Z,16.21
2018-09-22T00:51:30.750Z,16.33
2018-09-22T00:53:59.599Z,16.43
2018-09-22T00:56:28.793Z,16.45
2018-09-22T00:58:57.636Z,16.42
2018-09-22T01:01:26.465Z,16.46
2018-09-22T01:03:55.657Z,16.28
2018-09-22T01:06:24.588Z,16.37
2018-09-22T01:08:53.405Z,16.34
2018-09-22T01:11:22.612Z,16.36
2018-09-22T01:13:51.455Z,16.22
2018-09-22T01:16:20.287Z,16.13
2018-09-22T01:18:49.443Z,15.85
2018-09-22T01:21:18.373Z,15.84
2018-09-22T01:23:47.202Z,15.90
2018-09-22T01:26:16.271Z,15.79
2018-09-22T01:28:45.423Z,15.73
2018-09-22T01:31:14.228Z,15.73
2018-09-22T01:33:43.314Z,15.75
2018-09-22T01:36:12.575Z,15.82
2018-09-22T01:38:41.601Z,15.76
2018-09-22T01:41:10.519Z,15.68
2018-09-22T01:43:39.721Z,15.57
2018-09-22T01:46:08.917Z,15.59
2018-09-22T01:48:37.750Z,15.70
2018-09-22T01:51:06.729Z,15.74
2018-09-22T01:53:35.736Z,15.81
2018-09-22T01:56:05.545Z,15.79
2018-09-22T01:58:34.387Z,15.65
2018-09-22T02:01:03.297Z,15.48
2018-09-22T02:03:32.194Z,15.47
2018-09-22T02:06:01.349Z,15.44
2018-09-22T02:08:30.195Z,15.38
2018-09-22T02:10:59.037Z,15.36
2018-09-22T02:13:27.840Z,15.43
2018-09-22T02:15:56.648Z,15.42
2018-09-22T02:18:25.439Z,15.48
2018-09-22T02:20:54.586Z,15.56
2018-09-22T02:23:23.460Z,15.64
2018-09-22T02:25:52.410Z,15.60
2018-09-22T02:31:20.357Z,15.56
2018-09-22T02:33:49.518Z,15.54
2018-09-22T02:36:19.303Z,15.48
2018-09-22T02:38:48.172Z,15.34
2018-09-22T02:41:17.308Z,15.32
2018-09-22T02:43:46.163Z,15.34
2018-09-22T02:46:15.030Z,15.36
2018-09-22T02:48:44.189Z,15.32
2018-09-22T02:51:13.069Z,15.14
2018-09-22T02:53:41.979Z,15.17
2018-09-22T02:56:10.878Z,15.13
2018-09-22T02:58:40.054Z,15.14
2018-09-22T03:01:08.986Z,15.16
2018-09-22T03:03:37.846Z,15.06
2018-09-22T03:06:07.115Z,15.00
2018-09-22T03:08:35.986Z,15.08
2018-09-22T03:11:04.884Z,15.11
2018-09-22T03:13:34.098Z,15.12
2018-09-22T03:16:03.607Z,15.07
2018-09-22T03:18:32.474Z,15.06
2018-09-22T03:21:01.306Z,15.12
2018-09-22T03:23:30.194Z,15.16
2018-09-22T03:25:59.085Z,15.11
2018-09-22T03:28:28.038Z,15.04
2018-09-22T03:30:57.184Z,14.98
2018-09-22T03:33:26.042Z,14.96
2018-09-22T03:35:54.906Z,14.82
2018-09-22T03:38:23.737Z,14.91
2018-09-22T03:40:52.625Z,14.86
2018-09-22T03:43:21.446Z,14.96
2018-09-22T03:45:50.296Z,14.95
2018-09-22T03:48:19.277Z,14.85
2018-09-22T03:50:48.106Z,14.86
2018-09-22T03:53:16.962Z,14.84
2018-09-22T03:55:47.130Z,14.87
2018-09-22T03:58:16.618Z,14.94
2018-09-22T04:00:45.612Z,14.91
2018-09-22T04:03:14.500Z,14.92
2018-09-22T04:05:43.401Z,14.74
2018-09-22T04:08:12.254Z,14.70
2018-09-22T04:10:41.427Z,14.69
2018-09-22T04:13:10.297Z,14.69
2018-09-22T04:15:39.158Z,14.71
2018-09-22T04:18:08.058Z,14.60
2018-09-22T04:20:37.264Z,14.53
2018-09-22T04:23:06.173Z,14.53
2018-09-22T04:25:35.017Z,14.47
2018-09-22T04:28:04.658Z,14.54
2018-09-22T04:30:33.865Z,14.52
2018-09-22T04:33:02.732Z,14.61
2018-09-22T04:35:31.576Z,14.65
2018-09-22T04:38:00.421Z,14.64
2018-09-22T04:40:29.531Z,14.52
2018-09-22T04:42:58.423Z,14.43
2018-09-22T04:45:27.274Z,14.53
2018-09-22T04:47:56.103Z,14.42
2018-09-22T04:50:24.955Z,14.36
2018-09-22T04:52:53.810Z,14.28
2018-09-22T04:55:23.986Z,14.21
2018-09-22T04:57:52.870Z,14.06
2018-09-22T05:00:21.732Z,14.18
2018-09-22T05:02:50.587Z,14.28
2018-09-22T05:05:19.786Z,14.38
2018-09-22T05:07:49.429Z,14.41
2018-09-22T05:10:18.382Z,14.54
2018-09-22T05:12:47.871Z,14.56
2018-09-22T05:15:16.788Z,14.59
2018-09-22T05:17:45.711Z,14.59
2018-09-22T05:20:14.968Z,14.58
2018-09-22T05:22:43.840Z,14.60
2018-09-22T05:25:12.759Z,14.60
2018-09-22T05:27:41.646Z,14.53
2018-09-22T05:30:10.536Z,14.53
2018-09-22T05:32:40.005Z,14.49
2018-09-22T05:35:09.798Z,14.41
2018-09-22T05:37:38.685Z,14.42
2018-09-22T05:40:07.595Z,14.47
2018-09-22T05:42:36.709Z,14.40
2018-09-22T05:45:06.008Z,14.52
2018-09-22T05:47:34.882Z,14.51
2018-09-22T05:50:04.462Z,14.56
2018-09-22T05:52:33.557Z,14.53
2018-09-22T05:55:02.665Z,14.62
2018-09-22T05:57:31.760Z,14.56
2018-09-22T06:00:01.109Z,14.44
2018-09-22T06:02:30.265Z,14.35
2018-09-22T06:04:59.495Z,14.26
2018-09-22T06:07:28.737Z,14.22
2018-09-22T06:09:58.011Z,14.33
2018-09-22T06:12:26.954Z,14.26
2018-09-22T06:14:56.142Z,14.14
2018-09-22T06:17:25.058Z,14.07
2018-09-22T06:19:53.956Z,13.98
2018-09-22T06:22:22.873Z,13.92
2018-09-22T06:24:51.832Z,13.90
2018-09-22T06:27:20.741Z,13.95
2018-09-22T06:29:50.124Z,13.98
2018-09-22T06:32:19.189Z,13.99
2018-09-22T06:34:48.270Z,13.99
2018-09-22T06:37:17.512Z,14.06
2018-09-22T06:39:46.327Z,14.06
2018-09-22T06:42:15.230Z,14.09
2018-09-22T06:44:44.164Z,14.06
2018-09-22T06:47:13.411Z,14.11
2018-09-22T06:49:42.506Z,14.24
2018-09-22T06:52:11.418Z,14.31
2018-09-22T06:54:40.831Z,14.36
2018-09-22T06:57:10.197Z,14.51
2018-09-22T06:59:39.089Z,14.62
2018-09-22T07:02:08.626Z,14.83
2018-09-22T07:04:38.219Z,15.08
2018-09-22T07:07:07.157Z,15.17
2018-09-22T07:09:36.549Z,15.25
2018-09-22T07:12:06.504Z,15.41
2018-09-22T07:14:35.473Z,15.53
2018-09-22T07:17:04.757Z,15.56
2018-09-22T07:19:33.756Z,15.62
2018-09-22T07:22:07.613Z,15.71
2018-09-22T07:24:36.688Z,15.80
2018-09-22T07:27:06.865Z,15.59
2018-09-22T07:29:35.872Z,15.63
2018-09-22T07:32:06.006Z,15.60
2018-09-22T07:34:35.158Z,15.62
2018-09-22T07:37:04.274Z,15.80
2018-09-22T07:39:33.329Z,15.84
2018-09-22T07:42:02.916Z,15.71
2018-09-22T07:44:31.937Z,15.74
2018-09-22T07:47:00.892Z,15.74
2018-09-22T07:49:30.239Z,15.80
2018-09-22T07:51:59.218Z,15.84
2018-09-22T07:54:28.114Z,15.76
2018-09-22T07:56:57.550Z,15.85
2018-09-22T07:59:26.602Z,15.95
2018-09-22T08:01:58.443Z,16.08
2018-09-22T08:04:27.717Z,15.96
2018-09-22T08:06:56.650Z,16.04
2018-09-22T08:09:25.793Z,16.05
2018-09-22T08:11:55.284Z,16.09
2018-09-22T08:14:24.444Z,16.19
2018-09-22T08:16:55.960Z,16.23
2018-09-22T08:19:25.269Z,16.32
2018-09-22T08:21:54.216Z,16.55
2018-09-22T08:24:23.155Z,16.66
2018-09-22T08:26:52.548Z,16.58
2018-09-22T08:29:21.413Z,16.58
2018-09-22T08:31:50.958Z,16.71
2018-09-22T08:34:20.185Z,16.87
2018-09-22T08:36:49.196Z,16.90
2018-09-22T08:39:18.001Z,16.90
2018-09-22T08:41:47.247Z,16.93
2018-09-22T08:44:16.908Z,16.99
2018-09-22T08:46:45.812Z,17.21
2018-09-22T08:49:14.686Z,17.37
2018-09-22T08:51:43.603Z,17.49
2018-09-22T08:54:18.811Z,17.47
2018-09-22T08:56:47.667Z,17.45
2018-09-22T08:59:16.508Z,17.50
2018-09-22T09:01:45.850Z,17.74
2018-09-22T09:04:15.058Z,17.90
2018-09-22T09:06:44.448Z,18.06
2018-09-22T09:09:13.822Z,18.03
2018-09-22T09:11:42.778Z,18.15
2018-09-22T09:14:11.741Z,18.13
2018-09-22T09:16:40.945Z,18.09
2018-09-22T09:19:09.883Z,18.17
2018-09-22T09:21:38.757Z,18.35
2018-09-22T09:24:08.093Z,18.60
2018-09-22T09:26:36.950Z,18.62
2018-09-22T09:29:05.848Z,18.54
2018-09-22T09:31:35.257Z,18.37
2018-09-22T09:34:05.013Z,18.51
2018-09-22T09:36:33.989Z,18.48
2018-09-22T09:39:03.897Z,18.62
2018-09-22T09:41:32.989Z,18.61
2018-09-22T09:44:03.805Z,18.73
2018-09-22T09:46:33.151Z,18.96
2018-09-22T09:49:02.285Z,19.15
2018-09-22T09:51:31.248Z,19.24
2018-09-22T09:54:00.640Z,19.28
2018-09-22T09:56:29.585Z,19.30
2018-09-22T09:58:58.543Z,19.45
2018-09-22T10:01:27.473Z,19.55
2018-09-22T10:03:56.389Z,19.79
2018-09-22T10:06:25.779Z,20.08
2018-09-22T10:08:54.759Z,20.33
2018-09-22T10:11:23.655Z,20.45
2018-09-22T10:13:52.604Z,20.78
2018-09-22T10:16:21.494Z,20.38
2018-09-22T10:18:50.898Z,20.64
2018-09-22T10:21:19.816Z,20.77
2018-09-22T10:23:48.744Z,21.07
2018-09-22T10:26:17.892Z,21.43
2018-09-22T10:28:46.874Z,21.76
2018-09-22T10:31:16.209Z,22.04
2018-09-22T10:33:45.133Z,22.07
2018-09-22T10:36:14.154Z,22.38
2018-09-22T10:38:43.137Z,22.28
2018-09-22T10:41:12.133Z,22.45
2018-09-22T10:43:41.444Z,22.37
2018-09-22T10:49:02.782Z,22.66
2018-09-22T10:51:31.726Z,22.44
2018-09-22T10:54:00.634Z,22.34
2018-09-22T10:56:29.523Z,22.34
2018-09-22T10:58:58.424Z,21.89
2018-09-22T11:01:27.286Z,21.54
2018-09-22T11:03:56.198Z,21.44
2018-09-22T11:06:25.367Z,21.62
2018-09-22T11:08:54.242Z,21.61
2018-09-22T11:11:23.308Z,21.77
2018-09-22T11:13:52.213Z,21.36
2018-09-22T11:16:24.268Z,21.57
2018-09-22T11:18:53.435Z,21.75
2018-09-22T11:21:22.327Z,21.65
2018-09-22T11:23:51.263Z,21.72
2018-09-22T11:26:20.150Z,21.89
2018-09-22T11:28:49.036Z,22.03
2018-09-22T11:31:18.272Z,22.13
2018-09-22T11:33:47.186Z,21.99
2018-09-22T11:36:16.261Z,21.90
2018-09-22T11:38:45.395Z,21.99
2018-09-22T11:41:14.385Z,21.84
2018-09-22T11:43:43.513Z,21.90
2018-09-22T11:46:13.043Z,21.97
2018-09-22T11:48:42.061Z,21.86
2018-09-22T11:51:11.104Z,21.74
2018-09-22T11:53:40.256Z,22.06
2018-09-22T11:56:09.071Z,21.99
2018-09-22T11:58:37.981Z,21.78
2018-09-22T12:01:07.187Z,21.99
2018-09-22T12:03:36.117Z,21.93
2018-09-22T12:06:06.112Z,21.97
2018-09-22T12:08:35.287Z,22.15
2018-09-22T12:11:04.182Z,21.58
2018-09-22T12:13:33.062Z,21.57
2018-09-22T12:16:03.196Z,21.89
2018-09-22T12:18:32.114Z,21.98
2018-09-22T12:21:01.030Z,21.88
2018-09-22T12:23:30.233Z,22.22
2018-09-22T12:25:59.205Z,22.49
2018-09-22T12:28:28.062Z,22.41
2018-09-22T12:30:57.222Z,22.74
2018-09-22T12:33:26.131Z,22.88
2018-09-22T12:35:54.983Z,22.93
2018-09-22T12:38:24.613Z,23.22
2018-09-22T12:40:53.632Z,23.68
2018-09-22T12:43:23.224Z,23.83
2018-09-22T12:45:52.333Z,23.97
2018-09-22T12:48:21.273Z,24.34
2018-09-22T12:50:50.165Z,24.21
2018-09-22T12:53:19.154Z,24.07
2018-09-22T12:55:48.409Z,24.17
2018-09-22T12:58:17.557Z,24.28
2018-09-22T13:00:46.548Z,24.36
2018-09-22T13:03:15.474Z,23.90
2018-09-22T13:05:44.347Z,24.13
2018-09-22T13:08:13.242Z,24.09
2018-09-22T13:10:42.393Z,24.05
2018-09-22T13:13:25.704Z,23.85
2018-09-22T13:15:54.895Z,23.57
2018-09-22T13:18:23.801Z,23.28
2018-09-22T13:20:52.726Z,23.53
2018-09-22T13:23:21.890Z,24.12
2018-09-22T13:25:50.732Z,24.78
2018-09-22T13:28:19.586Z,24.89
2018-09-22T13:30:48.754Z,25.09
2018-09-22T13:33:17.653Z,25.37
2018-09-22T13:35:46.514Z,25.14
2018-09-22T13:38:15.701Z,24.49
2018-09-22T13:40:44.587Z,23.92
2018-09-22T13:43:13.766Z,24.16
2018-09-22T13:45:42.747Z,24.38
2018-09-22T13:48:12.123Z,23.98
2018-09-22T13:50:41.046Z,23.29
2018-09-22T13:53:10.453Z,22.86
2018-09-22T13:55:39.634Z,22.67
2018-09-22T13:58:08.557Z,22.13
2018-09-22T14:00:37.463Z,21.54
2018-09-22T14:03:06.744Z,21.37
2018-09-22T14:05:35.613Z,21.53
2018-09-22T14:08:05.281Z,21.35
2018-09-22T14:10:34.521Z,21.01
2018-09-22T14:13:03.371Z,20.80
2018-09-22T14:15:32.281Z,20.71
2018-09-22T14:18:03.162Z,20.65
2018-09-22T14:20:32.054Z,20.68
2018-09-22T14:23:00.915Z,20.71
2018-09-22T14:25:30.152Z,20.65
2018-09-22T14:27:59.050Z,20.75
2018-09-22T14:30:27.946Z,20.81
2018-09-22T14:32:57.215Z,20.97
2018-09-22T14:35:26.155Z,20.87
2018-09-22T14:37:55.093Z,20.98
2018-09-22T14:40:24.437Z,20.98
2018-09-22T14:42:53.355Z,20.94
2018-09-22T14:45:22.371Z,20.84
2018-09-22T14:47:51.523Z,20.89
2018-09-22T14:50:20.437Z,20.79
2018-09-22T14:52:49.345Z,20.70
2018-09-22T14:55:18.508Z,20.50
2018-09-22T14:57:47.409Z,20.50
2018-09-22T15:00:27.996Z,20.40
2018-09-22T15:02:57.099Z,20.28
2018-09-22T15:05:26.054Z,20.35
2018-09-22T15:07:55.520Z,20.28
2018-09-22T15:10:24.464Z,20.16
2018-09-22T15:12:53.384Z,20.13
2018-09-22T15:15:22.406Z,20.07
2018-09-22T15:17:51.489Z,20.09
2018-09-22T15:20:20.765Z,20.00
2018-09-22T15:22:49.724Z,19.94
2018-09-22T15:25:18.640Z,19.97
2018-09-22T15:27:47.549Z,19.94
2018-09-22T15:30:16.620Z,20.03
2018-09-22T15:32:45.851Z,20.14
2018-09-22T15:35:14.848Z,20.13
2018-09-22T15:37:43.795Z,20.11
2018-09-22T15:40:12.934Z,20.06
2018-09-22T15:42:41.805Z,20.12
2018-09-22T15:45:10.876Z,20.19
2018-09-22T15:47:40.193Z,20.20
2018-09-22T15:50:09.153Z,20.09
2018-09-22T15:52:38.133Z,20.16
2018-09-22T15:55:07.418Z,20.06
2018-09-22T15:57:36.325Z,20.03
2018-09-22T16:00:06.211Z,20.08
2018-09-22T16:02:35.761Z,20.15
2018-09-22T16:05:04.757Z,20.18
2018-09-22T16:07:33.974Z,20.20
2018-09-22T16:10:03.578Z,20.12
2018-09-22T16:12:32.606Z,20.05
2018-09-22T16:15:01.509Z,20.06
2018-09-22T16:17:30.455Z,20.13
2018-09-22T16:19:59.691Z,20.09
2018-09-22T16:22:28.627Z,20.10
2018-09-22T16:24:57.515Z,20.11
2018-09-22T16:27:26.458Z,19.85
2018-09-22T16:29:55.353Z,19.84
2018-09-22T16:33:27.025Z,19.88
2018-09-22T16:35:55.979Z,19.81
2018-09-22T16:38:25.173Z,19.73
2018-09-22T16:40:54.061Z,19.65
2018-09-22T16:43:23.007Z,19.66
2018-09-22T16:45:52.200Z,19.66
2018-09-22T16:48:21.144Z,19.71
2018-09-22T16:50:50.049Z,19.67
2018-09-22T16:53:19.354Z,19.63
2018-09-22T16:55:48.259Z,19.62
2018-09-22T16:58:17.409Z,19.58
2018-09-22T17:00:46.620Z,19.52
2018-09-22T17:03:15.493Z,19.55
2018-09-22T17:05:44.370Z,19.59
2018-09-22T17:08:13.609Z,19.50
2018-09-22T17:10:42.479Z,19.51
2018-09-22T17:13:11.365Z,19.54
2018-09-22T17:15:40.334Z,19.53
2018-09-22T17:18:09.313Z,19.50
2018-09-22T17:20:38.597Z,19.42
2018-09-22T17:23:07.747Z,19.45
2018-09-22T17:25:36.714Z,19.41
2018-09-22T17:28:07.014Z,19.36
2018-09-22T17:30:36.015Z,19.41
2018-09-22T17:33:04.917Z,19.46
2018-09-22T17:35:34.069Z,19.46
2018-09-22T17:38:05.114Z,19.49
2018-09-22T17:40:34.056Z,19.41
2018-09-22T17:43:03.434Z,19.31
2018-09-22T17:45:32.468Z,19.30
2018-09-22T17:48:01.361Z,19.28
2018-09-22T17:50:30.709Z,19.25
2018-09-22T17:52:59.614Z,19.24
2018-09-22T17:55:28.590Z,19.19
2018-09-22T17:57:57.890Z,19.31
2018-09-22T18:00:26.984Z,19.37
2018-09-22T18:02:55.908Z,19.20
2018-09-22T18:05:25.723Z,19.05
2018-09-22T18:07:54.578Z,19.03
2018-09-22T18:10:23.486Z,19.12
2018-09-22T18:12:52.747Z,19.06
2018-09-22T18:15:21.648Z,18.98
2018-09-22T18:17:50.626Z,18.86
2018-09-22T18:20:20.727Z,18.79
2018-09-22T18:22:49.613Z,18.70
2018-09-22T18:25:18.664Z,18.78
2018-09-22T18:27:47.686Z,18.90
2018-09-22T18:30:16.820Z,18.96
2018-09-22T18:32:45.888Z,18.92
2018-09-22T18:35:14.821Z,18.74
2018-09-22T18:37:43.707Z,18.81
2018-09-22T18:40:12.662Z,18.83
2018-09-22T18:42:46.389Z,18.70
2018-09-22T18:45:15.789Z,18.53
2018-09-22T18:47:45.334Z,18.64
2018-09-22T18:50:14.224Z,18.76
2018-09-22T18:52:43.418Z,18.85
2018-09-22T18:55:12.355Z,18.79
2018-09-22T18:57:41.368Z,18.88
2018-09-22T19:00:10.614Z,18.95
2018-09-22T19:02:39.503Z,18.98
2018-09-22T19:05:08.473Z,19.02
2018-09-22T19:07:39.096Z,18.76
2018-09-22T19:10:08.089Z,18.86
2018-09-22T19:12:38.893Z,18.97
2018-09-22T19:15:17.995Z,18.90
2018-09-22T19:17:50.513Z,18.79
2018-09-22T19:20:26.296Z,18.76
2018-09-22T19:26:04.507Z,18.78
2018-09-22T19:28:41.033Z,18.72
2018-09-22T19:31:13.921Z,18.83
2018-09-22T19:33:45.830Z,18.90
2018-09-22T19:36:20.329Z,18.79
2018-09-22T19:38:55.674Z,18.91
2018-09-22T19:41:34.810Z,18.92
2018-09-22T19:44:13.265Z,19.00
2018-09-22T19:46:49.172Z,19.05
2018-09-22T19:49:23.523Z,19.06
2018-09-22T19:52:09.484Z,19.10
2018-09-22T19:54:38.758Z,19.13
2018-09-22T19:57:07.755Z,19.12
2018-09-22T19:59:36.669Z,19.13
2018-09-22T20:02:06.986Z,19.17
2018-09-22T20:04:35.950Z,19.15
2018-09-22T20:07:04.928Z,19.14
2018-09-22T20:09:34.112Z,19.01
2018-09-22T20:12:05.258Z,19.03
2018-09-22T20:14:34.817Z,18.99
2018-09-22T20:17:04.067Z,18.95
2018-09-22T20:19:32.971Z,18.82
2018-09-22T20:22:02.580Z,18.75
2018-09-22T20:24:31.801Z,18.77
2018-09-22T20:27:00.682Z,18.72
2018-09-22T20:29:29.632Z,18.69
2018-09-22T20:31:58.874Z,18.66
2018-09-22T20:34:27.786Z,18.57
2018-09-22T20:36:56.655Z,18.53
2018-09-22T20:39:25.818Z,18.53
2018-09-22T20:41:54.712Z,18.52
2018-09-22T20:44:23.688Z,18.48
2018-09-22T20:46:52.868Z,18.38
2018-09-22T20:49:21.753Z,18.23
2018-09-22T20:51:50.680Z,18.30
2018-09-22T20:54:20.431Z,18.32
2018-09-22T20:56:49.389Z,18.32
2018-09-22T20:59:18.311Z,18.30
2018-09-22T21:01:47.707Z,18.17
2018-09-22T21:04:16.832Z,18.05
2018-09-22T21:06:45.999Z,18.04
2018-09-22T21:09:15.276Z,18.03
2018-09-22T21:11:44.177Z,18.03
2018-09-22T21:14:13.096Z,18.01
2018-09-22T21:16:41.980Z,18.02
2018-09-22T21:19:10.833Z,17.94
2018-09-22T21:21:40.129Z,17.69
2018-09-22T21:24:09.055Z,17.75
2018-09-22T21:26:37.971Z,17.88
2018-09-22T21:29:06.899Z,17.94
2018-09-22T21:31:35.827Z,17.90
2018-09-22T21:34:06.194Z,17.86
2018-09-22T21:36:35.208Z,17.89
2018-09-22T21:39:05.118Z,17.83
2018-09-22T21:41:34.688Z,17.92
2018-09-22T21:44:04.253Z,17.91
2018-09-22T21:46:33.146Z,17.96
2018-09-22T21:49:02.441Z,17.85
2018-09-22T21:51:31.280Z,17.86
2018-09-22T21:54:00.178Z,17.75
2018-09-22T21:56:29.525Z,17.88
2018-09-22T21:58:58.403Z,17.97
2018-09-22T22:01:32.455Z,18.00
2018-09-22T22:04:02.363Z,17.99
2018-09-22T22:06:31.247Z,17.97
2018-09-22T22:09:00.153Z,17.91
2018-09-22T22:11:29.531Z,17.86
2018-09-22T22:13:58.360Z,17.91
2018-09-22T22:16:27.248Z,17.88
2018-09-22T22:18:56.139Z,17.76
2018-09-22T22:21:25.336Z,17.72
2018-09-22T22:23:54.223Z,17.78
2018-09-22T22:26:24.818Z,17.85
2018-09-22T22:28:53.747Z,17.88
2018-09-22T22:31:22.703Z,17.87
2018-09-22T22:33:52.556Z,17.84
2018-09-22T22:36:21.750Z,17.62
2018-09-22T22:38:50.704Z,17.66
2018-09-22T22:41:23.622Z,17.73
2018-09-22T22:43:52.549Z,17.70
2018-09-22T22:46:21.897Z,17.80
2018-09-22T22:48:50.777Z,17.71
2018-09-22T22:51:19.782Z,17.75
2018-09-22T22:53:48.965Z,17.72
2018-09-22T22:56:17.896Z,17.70
2018-09-22T22:58:46.775Z,17.69
2018-09-22T23:01:16.076Z,17.71
2018-09-22T23:03:46.217Z,17.77
2018-09-22T23:06:15.284Z,17.78
2018-09-22T23:08:44.595Z,17.80
2018-09-22T23:11:13.600Z,17.75
2018-09-22T23:13:42.896Z,17.78
2018-09-22T23:16:12.166Z,17.74
2018-09-22T23:18:41.160Z,17.76
2018-09-22T23:21:10.153Z,17.75
2018-09-22T23:23:39.289Z,17.69
2018-09-22T23:26:08.196Z,17.66
2018-09-22T23:28:37.632Z,17.69
2018-09-22T23:31:07.009Z,17.72
2018-09-22T23:33:35.917Z,17.69
2018-09-22T23:36:05.522Z,17.68
2018-09-22T23:38:34.467Z,17.62
2018-09-22T23:41:03.483Z,17.32
2018-09-22T23:43:32.388Z,17.04
2018-09-22T23:46:01.605Z,17.17
2018-09-22T23:48:30.487Z,17.29
2018-09-22T23:50:59.319Z,17.28
2018-09-22T23:53:28.187Z,17.25
2018-09-22T23:55:57.194Z,17.12
2018-09-22T23:58:26.380Z,17.14
